Terminal Aerodrome Forecast
Issued by NWS

Home | Current Version | Previous Version | Text Only | Print | Product List | Glossary On
Versions: 1 2 3 4 5 6 7 8 9 10 11 12 13 14 15 16 17 18 19 20 21 22 23
000
FTUS41 KCAR 271730
TAFHUL
TAF
KHUL 271730Z 2718/2818 03017G28KT 1/4SM +SN BLSN OVC003
     FM272200 02019G32KT 3/4SM -SN BLSN OVC005
     FM280200 01017G28KT 1 1/2SM -SN BLSN OVC008
     FM281000 33015G22KT P6SM VCSH BKN020=

USA.gov is the U.S. government's official web portal to all federal, state and local government web resources and services.